Mesquite, TX (75182)

7:03 AM CDT on August 28, 2016 (GMT -0500)
Mesquite, TX - Municipal Center | | Change Station

Elev 515 ft 32.77 °N, 96.60 °W | Updated 2 minutes ago

Clear
Clear
70.1 °F
Feels Like 70.1 °F
N
2.0
Wind Variable Wind from SW
Gusts 3.0 mph

Today
High -- | Low -- °F
--% Chance of Precip.
Yesterday
High -- | Low -- °F
Precip. -- in
Pressure 30.05 in
Visibility 10.0 miles
Clouds Clear
Dew Point 67 °F
Humidity 91%
Rainfall 0.00 in
Snow Depth Not available.
6:58 AM 7:55 PM
Waning Crescent, 16% visible
METAR KHQZ 281150Z 00000KT 10SM CLR 21/21 A3005
Pressure 30.05 in
Visibility 10.0 miles
Clouds Clear
Dew Point 67 °F
Humidity 91%
Rainfall 0.00 in
Snow Depth Not available.
6:58 AM 7:55 PM
Waning Crescent, 16% visible
METAR KHQZ 281150Z 00000KT 10SM CLR 21/21 A3005

10-Day Weather Forecast

Almanac

Astronomy

Aug. 28, 2016 Rise Set
Actual Time
Civil Twilight
Nautical Twilight
Astronomical Twilight
Moon
Length of Visible Light
Length of Day
Tomorrow will be .
, % of the Moon is Illuminated

Today's Extremes

State Highs State Lows

Community

WunderPhotos

Upload Photos

1,935,552 photos uploaded!

WunderBlog® & News

Nearby

Air Quality

  Air Quality AQ Index Pollutant
Not available.

Snow Depth

Station Depth Elevation

Earthquake Activity

City Distance Mag. Time & Date
Minimum magnitude displayed is 2.5.

Coastal Water Temperatures

Place Temperature

Stations

Nearby Weather Stations

Station Location Temp. Windchill Dew Point Humidity Wind Precip. Elev Updated Type
                   

Watches & Warnings

There are currently no watches in effect.